createdAt,value
2023-02-18T00:00:10.688Z,1.20
2023-02-18T00:04:35.890Z,1.00
2023-02-18T00:08:41.120Z,0.70
2023-02-18T00:12:46.371Z,0.70
2023-02-18T00:16:52.187Z,0.80
2023-02-18T00:20:57.402Z,0.90
2023-02-18T00:25:02.680Z,1.20
2023-02-18T00:29:07.958Z,1.30
2023-02-18T00:33:13.186Z,1.30
2023-02-18T00:37:18.428Z,1.20
2023-02-18T00:41:24.608Z,1.20
2023-02-18T00:45:29.838Z,1.30
2023-02-18T00:49:35.093Z,0.90
2023-02-18T00:53:40.819Z,1.00
2023-02-18T00:57:46.042Z,1.20
2023-02-18T01:01:51.333Z,1.00
2023-02-18T01:05:56.578Z,1.20
2023-02-18T01:10:02.005Z,1.10
2023-02-18T01:14:07.287Z,1.00
2023-02-18T01:18:12.826Z,0.90
2023-02-18T01:22:18.054Z,1.10
2023-02-18T01:26:23.310Z,1.10
2023-02-18T01:30:28.571Z,0.80
2023-02-18T01:34:33.888Z,0.60
2023-02-18T01:38:39.140Z,0.90
2023-02-18T01:42:44.356Z,1.00
2023-02-18T01:46:50.383Z,0.80
2023-02-18T01:50:58.140Z,1.00
2023-02-18T01:55:03.424Z,0.90
2023-02-18T01:59:10.089Z,0.70
2023-02-18T02:03:15.503Z,1.20
2023-02-18T02:07:21.866Z,0.70
2023-02-18T02:11:33.611Z,1.00
2023-02-18T02:15:42.919Z,1.20
2023-02-18T02:20:16.886Z,0.80
2023-02-18T02:24:41.591Z,0.90
2023-02-18T02:29:01.810Z,1.10
2023-02-18T02:33:17.748Z,1.20
2023-02-18T02:37:27.037Z,0.80
2023-02-18T02:41:41.079Z,0.90
2023-02-18T02:45:50.093Z,1.40
2023-02-18T02:50:00.600Z,1.40
2023-02-18T02:54:13.412Z,0.90
2023-02-18T02:58:19.976Z,1.00
2023-02-18T03:02:28.903Z,0.80
2023-02-18T03:06:42.435Z,0.90
2023-02-18T03:10:57.106Z,1.00
2023-02-18T03:15:05.500Z,0.90
2023-02-18T03:19:13.227Z,1.00
2023-02-18T03:23:21.651Z,0.90
2023-02-18T03:27:29.898Z,1.40
2023-02-18T03:31:36.845Z,1.40
2023-02-18T03:35:43.535Z,1.40
2023-02-18T03:39:50.882Z,0.50
2023-02-18T03:44:02.452Z,1.10
2023-02-18T03:48:08.213Z,1.10
2023-02-18T03:56:17.325Z,0.90
2023-02-18T04:00:23.006Z,0.80
2023-02-18T04:08:31.876Z,0.80
2023-02-18T04:12:37.122Z,1.10
2023-02-18T04:16:42.431Z,0.40
2023-02-18T04:20:47.733Z,1.00
2023-02-18T04:24:53.804Z,0.80
2023-02-18T04:28:59.188Z,0.90
2023-02-18T04:33:04.713Z,0.50
2023-02-18T04:37:09.990Z,1.20
2023-02-18T04:41:15.309Z,0.90
2023-02-18T04:45:20.705Z,0.80
2023-02-18T04:49:26.088Z,1.30
2023-02-18T04:53:31.287Z,0.70
2023-02-18T04:57:36.525Z,1.70
2023-02-18T05:01:41.890Z,0.80
2023-02-18T05:05:47.170Z,1.20
2023-02-18T05:09:52.404Z,1.10
2023-02-18T05:13:57.668Z,1.20
2023-02-18T05:18:02.929Z,1.10
2023-02-18T05:22:08.204Z,0.70
2023-02-18T05:26:13.428Z,0.90
2023-02-18T05:30:18.728Z,1.30
2023-02-18T05:34:23.997Z,0.70
2023-02-18T05:38:29.277Z,1.00
2023-02-18T05:42:34.490Z,1.60
2023-02-18T05:46:39.730Z,0.80
2023-02-18T05:50:45.061Z,0.70
2023-02-18T05:54:50.351Z,0.80
2023-02-18T05:58:55.598Z,1.30
2023-02-18T06:03:00.944Z,1.90
2023-02-18T06:07:06.281Z,1.70
2023-02-18T06:11:11.479Z,0.80
2023-02-18T06:15:16.736Z,1.10
2023-02-18T06:19:21.963Z,1.50
2023-02-18T06:23:27.192Z,0.90
2023-02-18T06:27:32.401Z,1.30
2023-02-18T06:31:37.694Z,1.00
2023-02-18T06:35:43.119Z,1.00
2023-02-18T06:39:48.383Z,0.90
2023-02-18T06:43:53.613Z,1.50
2023-02-18T06:47:58.859Z,0.90
2023-02-18T06:52:04.111Z,1.40
2023-02-18T06:56:09.730Z,0.90
2023-02-18T07:04:18.770Z,1.60
2023-02-18T07:08:24.146Z,1.20
2023-02-18T07:12:29.610Z,1.10
2023-02-18T07:16:34.895Z,1.00
2023-02-18T07:20:40.176Z,0.60
2023-02-18T07:24:45.534Z,0.50
2023-02-18T07:28:50.804Z,1.00
2023-02-18T07:32:56.062Z,0.90
2023-02-18T07:37:01.289Z,1.10
2023-02-18T07:41:06.776Z,1.10
2023-02-18T07:45:12.299Z,1.40
2023-02-18T07:49:17.695Z,1.00
2023-02-18T07:53:23.046Z,1.10
2023-02-18T07:57:28.273Z,1.00
2023-02-18T08:01:33.657Z,0.70
2023-02-18T08:05:38.954Z,1.20
2023-02-18T08:09:44.215Z,1.20
2023-02-18T08:13:49.746Z,1.60
2023-02-18T08:22:02.002Z,0.70
2023-02-18T08:26:07.818Z,1.10
2023-02-18T08:30:13.985Z,0.90
2023-02-18T08:34:19.284Z,1.50
2023-02-18T08:38:24.972Z,1.60
2023-02-18T08:42:32.401Z,1.10
2023-02-18T08:46:37.726Z,1.20
2023-02-18T08:50:43.688Z,1.10
2023-02-18T08:54:48.932Z,1.40
2023-02-18T08:58:54.355Z,1.40
2023-02-18T09:07:03.892Z,1.10
2023-02-18T09:11:11.148Z,1.10
2023-02-18T09:15:16.733Z,1.00
2023-02-18T09:19:21.986Z,0.90
2023-02-18T09:23:27.583Z,1.40
2023-02-18T09:27:32.849Z,1.50
2023-02-18T09:31:39.475Z,1.50
2023-02-18T09:35:45.423Z,0.90
2023-02-18T09:39:50.658Z,1.30
2023-02-18T09:43:57.403Z,1.10
2023-02-18T09:48:03.539Z,1.30
2023-02-18T09:52:20.151Z,1.30
2023-02-18T09:56:29.469Z,1.90
2023-02-18T10:00:37.260Z,1.00
2023-02-18T10:04:45.013Z,1.60
2023-02-18T10:08:51.896Z,1.60
2023-02-18T10:12:57.862Z,1.30
2023-02-18T10:17:03.554Z,0.90
2023-02-18T10:21:11.238Z,1.40
2023-02-18T10:25:19.338Z,1.40
2023-02-18T10:29:24.760Z,0.60
2023-02-18T10:37:42.511Z,1.50
2023-02-18T10:41:52.165Z,1.40
2023-02-18T10:45:59.867Z,1.50
2023-02-18T10:50:09.501Z,1.50
2023-02-18T10:54:15.575Z,1.20
2023-02-18T10:58:28.842Z,0.80
2023-02-18T11:02:34.080Z,1.00
2023-02-18T11:10:44.856Z,2.00
2023-02-18T11:14:51.413Z,1.00
2023-02-18T11:18:56.682Z,1.10
2023-02-18T11:27:09.368Z,0.90
2023-02-18T11:31:18.722Z,1.30
2023-02-18T11:35:26.334Z,1.00
2023-02-18T11:39:32.633Z,1.20
2023-02-18T11:43:38.574Z,2.00
2023-02-18T11:47:43.855Z,1.10
2023-02-18T11:55:57.377Z,1.60
2023-02-18T12:00:03.092Z,1.70
2023-02-18T12:04:13.011Z,1.30
2023-02-18T12:08:22.796Z,1.50
2023-02-18T12:12:29.628Z,1.20
2023-02-18T12:16:39.971Z,1.30
2023-02-18T12:21:02.156Z,1.30
2023-02-18T12:25:15.169Z,1.50
2023-02-18T12:29:29.473Z,1.60
2023-02-18T12:33:38.081Z,0.90
2023-02-18T12:37:50.833Z,1.30
2023-02-18T12:42:00.660Z,1.10
2023-02-18T12:46:18.273Z,1.60
2023-02-18T12:50:36.525Z,1.20
2023-02-18T12:54:47.930Z,1.60
2023-02-18T12:58:57.305Z,1.30
2023-02-18T13:03:20.070Z,1.30
2023-02-18T13:07:38.754Z,1.00
2023-02-18T13:11:48.145Z,1.30
2023-02-18T13:15:55.328Z,1.10
2023-02-18T13:20:01.980Z,1.20
2023-02-18T13:24:08.738Z,1.30
2023-02-18T13:28:19.235Z,1.40
2023-02-18T13:32:27.773Z,1.30
2023-02-18T13:36:39.838Z,1.80
2023-02-18T13:40:45.766Z,1.20
2023-02-18T13:45:08.428Z,1.40
2023-02-18T13:49:14.174Z,2.10
2023-02-18T13:53:24.497Z,1.30
2023-02-18T13:57:29.708Z,1.30
2023-02-18T14:01:41.226Z,0.80
2023-02-18T14:05:46.689Z,1.10
2023-02-18T14:13:56.496Z,1.90
2023-02-18T14:18:11.016Z,1.30
2023-02-18T14:22:27.232Z,1.40
2023-02-18T14:26:33.915Z,1.40
2023-02-18T14:30:41.324Z,1.60
2023-02-18T14:35:00.058Z,1.40
2023-02-18T14:39:08.633Z,1.40
2023-02-18T14:43:20.315Z,2.00
2023-02-18T14:47:30.335Z,1.20
2023-02-18T14:51:36.097Z,1.40
2023-02-18T14:55:44.974Z,1.70
2023-02-18T14:59:50.315Z,1.50
2023-02-18T15:03:56.410Z,1.60
2023-02-18T15:08:03.032Z,1.30
2023-02-18T15:12:09.989Z,1.50
2023-02-18T15:16:17.522Z,1.50
2023-02-18T15:20:22.972Z,1.30
2023-02-18T15:24:31.332Z,0.80
2023-02-18T15:28:42.920Z,1.30
2023-02-18T15:32:52.075Z,1.10
2023-02-18T15:36:57.766Z,1.10
2023-02-18T15:41:04.086Z,1.10
2023-02-18T15:45:17.580Z,0.80
2023-02-18T15:49:24.032Z,0.70
2023-02-18T15:53:29.520Z,1.00
2023-02-18T15:57:37.030Z,0.90
2023-02-18T16:01:42.412Z,1.40
2023-02-18T16:05:47.709Z,1.00
2023-02-18T16:09:58.714Z,1.20
2023-02-18T16:14:06.089Z,1.40
2023-02-18T16:18:21.842Z,1.30
2023-02-18T16:22:33.333Z,1.50
2023-02-18T16:26:44.650Z,1.10
2023-02-18T16:30:49.955Z,1.80
2023-02-18T16:34:55.299Z,1.30
2023-02-18T16:39:02.091Z,1.10
2023-02-18T16:43:11.770Z,1.60
2023-02-18T16:47:18.060Z,0.50
2023-02-18T16:51:24.385Z,1.90
2023-02-18T16:55:30.813Z,1.50
2023-02-18T16:59:36.027Z,1.50
2023-02-18T17:03:41.273Z,2.10
2023-02-18T17:07:46.496Z,2.40
2023-02-18T17:11:53.111Z,1.80
2023-02-18T17:15:59.374Z,1.90
2023-02-18T17:20:04.659Z,1.80
2023-02-18T17:24:12.219Z,1.80
2023-02-18T17:28:19.271Z,1.80
2023-02-18T17:32:24.523Z,2.00
2023-02-18T17:36:29.789Z,1.80
2023-02-18T17:40:35.067Z,2.00
2023-02-18T17:44:41.450Z,1.70
2023-02-18T17:48:47.437Z,1.40
2023-02-18T17:52:52.720Z,1.20
2023-02-18T17:56:58.209Z,1.60
2023-02-18T18:01:03.508Z,1.10
2023-02-18T18:05:14.638Z,1.30
2023-02-18T18:09:19.846Z,1.30
2023-02-18T18:13:26.457Z,1.00
2023-02-18T18:17:31.929Z,1.50
2023-02-18T18:21:37.567Z,1.80
2023-02-18T18:25:43.775Z,1.30
2023-02-18T18:29:49.568Z,1.40
2023-02-18T18:37:59.273Z,1.70
2023-02-18T18:42:06.705Z,1.90
2023-02-18T18:46:12.040Z,1.60
2023-02-18T18:50:17.850Z,1.70
2023-02-18T18:58:26.868Z,1.30
2023-02-18T19:02:32.686Z,1.30
2023-02-18T19:06:37.944Z,1.20
2023-02-18T19:10:44.241Z,1.20
2023-02-18T19:14:49.483Z,0.80
2023-02-18T19:18:54.803Z,1.90
2023-02-18T19:23:00.534Z,2.00
2023-02-18T19:27:05.883Z,2.00
2023-02-18T19:31:11.836Z,1.80
2023-02-18T19:35:17.465Z,1.50
2023-02-18T19:39:22.682Z,1.20
2023-02-18T19:43:27.987Z,1.80
2023-02-18T19:47:33.239Z,2.10
2023-02-18T19:51:38.515Z,1.50
2023-02-18T19:55:43.720Z,1.50
2023-02-18T19:59:49.391Z,1.50
2023-02-18T20:03:54.628Z,1.90
2023-02-18T20:07:59.869Z,1.80
2023-02-18T20:12:05.537Z,2.00
2023-02-18T20:16:11.656Z,2.50
2023-02-18T20:20:16.996Z,2.90
2023-02-18T20:24:22.587Z,2.20
2023-02-18T20:28:28.778Z,2.40
2023-02-18T20:32:35.007Z,2.00
2023-02-18T20:36:41.734Z,3.20
2023-02-18T20:40:46.975Z,2.00
2023-02-18T20:44:52.699Z,2.60
2023-02-18T20:48:57.965Z,3.20
2023-02-18T20:53:03.184Z,3.20
2023-02-18T20:57:09.117Z,3.70
2023-02-18T21:01:15.355Z,3.20
2023-02-18T21:05:20.653Z,1.10
2023-02-18T21:09:26.021Z,2.40
2023-02-18T21:13:31.324Z,1.90
2023-02-18T21:17:36.591Z,1.60
2023-02-18T21:21:42.084Z,2.20
2023-02-18T21:25:47.930Z,2.70
2023-02-18T21:29:53.277Z,2.10
2023-02-18T21:33:58.551Z,2.40
2023-02-18T21:38:03.884Z,2.40
2023-02-18T21:42:09.121Z,1.80
2023-02-18T21:46:16.657Z,2.80
2023-02-18T21:50:22.015Z,2.20
2023-02-18T21:54:28.095Z,1.80
2023-02-18T21:58:33.355Z,1.60
2023-02-18T22:02:39.073Z,1.00
2023-02-18T22:06:44.430Z,2.10
2023-02-18T22:10:49.686Z,1.80
2023-02-18T22:14:54.903Z,2.60
2023-02-18T22:19:00.316Z,2.10
2023-02-18T22:23:05.636Z,1.90
2023-02-18T22:27:10.884Z,2.10
2023-02-18T22:31:16.466Z,1.80
2023-02-18T22:35:21.748Z,2.10
2023-02-18T22:39:27.068Z,2.60
2023-02-18T22:43:32.303Z,2.00
2023-02-18T22:47:37.551Z,2.40
2023-02-18T22:51:43.624Z,1.70
2023-02-18T22:59:52.791Z,1.80
2023-02-18T23:03:59.071Z,1.90
2023-02-18T23:08:06.154Z,1.70
2023-02-18T23:12:11.687Z,2.20
2023-02-18T23:16:17.014Z,1.30
2023-02-18T23:20:42.262Z,1.80
2023-02-18T23:24:49.567Z,1.40
2023-02-18T23:28:54.959Z,1.60
2023-02-18T23:33:00.208Z,2.20
2023-02-18T23:37:05.677Z,2.00
2023-02-18T23:41:11.196Z,1.70
2023-02-18T23:45:16.754Z,1.20
2023-02-18T23:49:23.331Z,1.60
2023-02-18T23:53:29.110Z,2.10
2023-02-18T23:57:34.375Z,1.70
